createdAt,value
2022-09-06T00:00:16.952Z,15.85
2022-09-06T00:02:44.924Z,15.82
2022-09-06T00:05:13.268Z,15.79
2022-09-06T00:07:40.361Z,15.76
2022-09-06T00:10:07.753Z,15.72
2022-09-06T00:12:34.519Z,15.75
2022-09-06T00:15:01.152Z,15.77
2022-09-06T00:17:27.844Z,15.79
2022-09-06T00:19:54.766Z,15.86
2022-09-06T00:22:21.451Z,15.80
2022-09-06T00:24:48.019Z,15.79
2022-09-06T00:27:14.616Z,15.79
2022-09-06T00:29:41.869Z,15.77
2022-09-06T00:32:09.096Z,15.76
2022-09-06T00:34:35.782Z,15.73
2022-09-06T00:37:02.480Z,15.73
2022-09-06T00:39:29.246Z,15.77
2022-09-06T00:41:56.010Z,15.81
2022-09-06T00:44:22.721Z,15.81
2022-09-06T00:46:52.203Z,15.78
2022-09-06T00:49:24.379Z,15.77
2022-09-06T00:51:55.645Z,15.73
2022-09-06T00:54:22.456Z,15.71
2022-09-06T00:56:49.734Z,15.73
2022-09-06T00:59:17.255Z,15.70
2022-09-06T01:01:44.069Z,15.71
2022-09-06T01:04:11.025Z,15.74
2022-09-06T01:07:05.966Z,15.75
2022-09-06T01:10:02.868Z,15.73
2022-09-06T01:12:32.245Z,15.72
2022-09-06T01:15:13.707Z,15.64
2022-09-06T01:17:40.269Z,15.61
2022-09-06T01:20:21.968Z,15.65
2022-09-06T01:23:10.580Z,15.61
2022-09-06T01:25:47.033Z,15.62
2022-09-06T01:28:28.936Z,15.63
2022-09-06T01:31:30.408Z,15.59
2022-09-06T01:34:05.937Z,15.61
2022-09-06T01:37:08.457Z,15.57
2022-09-06T01:39:36.434Z,15.52
2022-09-06T01:42:25.805Z,15.40
2022-09-06T01:44:59.709Z,15.40
2022-09-06T01:47:29.313Z,15.37
2022-09-06T01:50:14.290Z,15.35
2022-09-06T01:53:25.245Z,15.40
2022-09-06T01:55:58.322Z,15.33
2022-09-06T01:58:51.481Z,15.34
2022-09-06T02:01:19.236Z,15.32
2022-09-06T02:04:00.598Z,15.25
2022-09-06T02:06:36.274Z,15.27
2022-09-06T02:09:10.381Z,15.32
2022-09-06T02:11:49.785Z,15.31
2022-09-06T02:14:49.785Z,15.28
2022-09-06T02:17:21.951Z,15.31
2022-09-06T02:19:54.838Z,15.29
2022-09-06T02:22:26.106Z,15.34
2022-09-06T02:24:55.183Z,15.38
2022-09-06T02:27:21.845Z,15.40
2022-09-06T02:29:48.697Z,15.41
2022-09-06T02:32:21.892Z,15.37
2022-09-06T02:34:54.574Z,15.37
2022-09-06T02:37:23.883Z,15.39
2022-09-06T02:39:50.530Z,15.37
2022-09-06T02:42:17.576Z,15.38
2022-09-06T02:44:44.275Z,15.35
2022-09-06T02:47:10.938Z,15.30
2022-09-06T02:49:37.620Z,15.26
2022-09-06T02:52:04.390Z,15.21
2022-09-06T02:54:31.220Z,15.24
2022-09-06T02:56:57.949Z,15.22
2022-09-06T02:59:24.549Z,15.18
2022-09-06T03:01:51.207Z,15.19
2022-09-06T03:04:17.894Z,15.16
2022-09-06T03:06:44.557Z,15.14
2022-09-06T03:09:11.229Z,15.13
2022-09-06T03:11:38.057Z,15.11
2022-09-06T03:14:04.872Z,15.12
2022-09-06T03:16:31.517Z,15.15
2022-09-06T03:18:58.264Z,15.07
2022-09-06T03:21:24.946Z,14.98
2022-09-06T03:23:51.537Z,14.94
2022-09-06T03:26:18.349Z,14.94
2022-09-06T03:28:45.243Z,14.95
2022-09-06T03:31:12.074Z,14.99
2022-09-06T03:33:38.808Z,14.97
2022-09-06T03:36:05.559Z,14.92
2022-09-06T03:38:32.548Z,14.91
2022-09-06T03:40:59.239Z,14.87
2022-09-06T03:43:28.107Z,14.87
2022-09-06T03:45:57.835Z,14.86
2022-09-06T03:48:26.787Z,14.86
2022-09-06T03:50:55.765Z,14.89
2022-09-06T03:53:24.157Z,14.88
2022-09-06T03:55:53.021Z,14.85
2022-09-06T03:58:21.531Z,14.84
2022-09-06T04:00:48.924Z,14.80
2022-09-06T04:03:15.842Z,14.75
2022-09-06T04:05:46.522Z,14.71
2022-09-06T04:08:13.550Z,14.75
2022-09-06T04:10:40.554Z,14.72
2022-09-06T04:13:07.158Z,14.73
2022-09-06T04:15:33.756Z,14.76
2022-09-06T04:18:00.436Z,14.73
2022-09-06T04:20:27.113Z,14.69
2022-09-06T04:22:53.759Z,14.63
2022-09-06T04:25:20.383Z,14.59
2022-09-06T04:27:47.041Z,14.56
2022-09-06T04:30:13.654Z,14.60
2022-09-06T04:32:40.501Z,14.53
2022-09-06T04:35:07.698Z,14.53
2022-09-06T04:37:34.464Z,14.54
2022-09-06T04:40:01.290Z,14.58
2022-09-06T04:42:28.063Z,14.56
2022-09-06T04:44:54.782Z,14.58
2022-09-06T04:47:21.414Z,14.59
2022-09-06T04:49:51.162Z,14.58
2022-09-06T04:52:18.101Z,14.54
2022-09-06T04:54:44.894Z,14.48
2022-09-06T04:57:11.512Z,14.45
2022-09-06T04:59:38.375Z,14.46
2022-09-06T05:02:05.084Z,14.54
2022-09-06T05:04:31.762Z,14.59
2022-09-06T05:07:07.122Z,14.56
2022-09-06T05:09:34.186Z,14.59
2022-09-06T05:12:01.662Z,14.60
2022-09-06T05:14:28.954Z,14.59
2022-09-06T05:16:55.973Z,14.55
2022-09-06T05:19:23.126Z,14.61
2022-09-06T05:21:51.435Z,14.60
2022-09-06T05:24:18.306Z,14.64
2022-09-06T05:26:44.972Z,14.71
2022-09-06T05:29:11.661Z,14.78
2022-09-06T05:31:38.434Z,14.81
2022-09-06T05:34:05.351Z,14.87
2022-09-06T05:36:32.077Z,14.82
2022-09-06T05:38:59.423Z,14.84
2022-09-06T05:41:26.456Z,14.90
2022-09-06T05:43:53.148Z,15.01
2022-09-06T05:46:20.191Z,15.08
2022-09-06T05:49:01.238Z,15.08
2022-09-06T05:51:32.857Z,15.14
2022-09-06T05:53:59.944Z,15.13
2022-09-06T05:56:26.479Z,15.13
2022-09-06T05:58:53.048Z,15.15
2022-09-06T06:01:26.731Z,15.16
2022-09-06T06:03:58.989Z,15.13
2022-09-06T06:06:27.906Z,15.12
2022-09-06T06:08:54.892Z,15.15
2022-09-06T06:11:22.027Z,15.25
2022-09-06T06:13:48.906Z,15.28
2022-09-06T06:16:17.758Z,15.37
2022-09-06T06:18:47.656Z,15.34
2022-09-06T06:21:22.561Z,15.39
2022-09-06T06:24:01.201Z,15.48
2022-09-06T06:26:31.658Z,15.57
2022-09-06T06:29:01.796Z,15.59
2022-09-06T06:31:33.351Z,15.60
2022-09-06T06:34:03.208Z,15.62
2022-09-06T06:36:31.761Z,15.70
2022-09-06T06:38:58.625Z,15.76
2022-09-06T06:41:27.580Z,15.78
2022-09-06T06:43:56.364Z,15.85
2022-09-06T06:46:25.281Z,16.01
2022-09-06T06:48:55.184Z,16.00
2022-09-06T06:51:24.132Z,16.15
2022-09-06T06:53:51.548Z,16.29
2022-09-06T06:56:22.359Z,16.36
2022-09-06T06:58:51.240Z,16.39
2022-09-06T07:01:20.575Z,16.44
2022-09-06T07:03:48.087Z,16.52
2022-09-06T07:06:15.426Z,16.59
2022-09-06T07:08:42.604Z,16.62
2022-09-06T07:11:11.721Z,16.63
2022-09-06T07:13:38.682Z,16.74
2022-09-06T07:16:20.018Z,16.82
2022-09-06T07:18:47.756Z,16.88
2022-09-06T07:26:38.919Z,17.18
2022-09-06T07:29:07.256Z,17.25
2022-09-06T07:34:22.124Z,17.36
2022-09-06T07:36:51.611Z,17.46
2022-09-06T07:39:18.268Z,17.58
2022-09-06T07:41:44.995Z,17.68
2022-09-06T07:44:11.649Z,17.77
2022-09-06T07:46:38.514Z,17.83
2022-09-06T07:49:06.162Z,17.92
2022-09-06T07:51:33.014Z,17.95
2022-09-06T07:54:34.643Z,17.96
2022-09-06T07:56:47.542Z,17.91
2022-09-06T07:59:14.312Z,17.82
2022-09-06T08:01:41.621Z,17.77
2022-09-06T08:04:10.785Z,17.87
2022-09-06T08:09:27.329Z,17.90
2022-09-06T08:11:53.963Z,18.01
2022-09-06T08:14:20.632Z,18.11
2022-09-06T08:16:47.344Z,18.13
2022-09-06T08:19:14.360Z,18.19
2022-09-06T08:21:41.219Z,18.16
2022-09-06T08:24:12.466Z,18.15
2022-09-06T08:26:40.594Z,18.12
2022-09-06T08:29:09.010Z,18.14
2022-09-06T08:31:41.218Z,18.15
2022-09-06T08:34:08.275Z,18.23
2022-09-06T08:36:35.304Z,18.29
2022-09-06T08:39:05.454Z,18.32
2022-09-06T08:41:49.008Z,18.35
2022-09-06T08:47:16.960Z,18.56
2022-09-06T08:49:49.273Z,18.70
2022-09-06T08:52:49.570Z,18.75
2022-09-06T08:55:44.514Z,18.80
2022-09-06T08:58:33.962Z,18.83
2022-09-06T09:01:08.738Z,18.86
2022-09-06T09:03:37.722Z,18.98
2022-09-06T09:06:07.716Z,19.14
2022-09-06T09:08:37.223Z,19.17
2022-09-06T09:11:09.036Z,19.22
2022-09-06T09:13:40.591Z,19.25
2022-09-06T09:16:07.606Z,19.28
2022-09-06T09:18:38.840Z,19.35
2022-09-06T09:21:05.930Z,19.35
2022-09-06T09:23:32.573Z,19.34
2022-09-06T09:26:04.668Z,19.40
2022-09-06T09:28:31.684Z,19.45
2022-09-06T09:30:58.876Z,19.46
2022-09-06T09:33:35.869Z,19.41
2022-09-06T09:36:07.927Z,19.45
2022-09-06T09:38:52.968Z,19.42
2022-09-06T09:41:38.336Z,19.33
2022-09-06T09:44:09.193Z,19.36
2022-09-06T09:46:37.576Z,19.34
2022-09-06T09:49:04.203Z,19.31
2022-09-06T09:51:36.255Z,19.34
2022-09-06T09:54:05.708Z,19.30
2022-09-06T09:56:53.852Z,19.29
2022-09-06T09:59:44.172Z,19.44
2022-09-06T10:02:35.747Z,19.55
2022-09-06T10:05:04.325Z,19.59
2022-09-06T10:07:33.903Z,19.64
2022-09-06T10:10:07.308Z,19.85
2022-09-06T10:12:38.756Z,20.04
2022-09-06T10:15:08.403Z,20.22
2022-09-06T10:17:38.020Z,20.31
2022-09-06T10:20:11.566Z,20.23
2022-09-06T10:23:03.144Z,20.22
2022-09-06T10:25:54.674Z,20.27
2022-09-06T10:28:33.605Z,20.37
2022-09-06T10:31:11.050Z,20.37
2022-09-06T10:33:49.665Z,20.40
2022-09-06T10:36:22.770Z,20.39
2022-09-06T10:39:04.208Z,20.39
2022-09-06T10:41:48.584Z,20.47
2022-09-06T10:45:02.936Z,20.62
2022-09-06T10:47:50.430Z,20.51
2022-09-06T10:50:17.405Z,20.74
2022-09-06T10:52:47.089Z,20.86
2022-09-06T10:55:18.237Z,20.92
2022-09-06T11:00:47.309Z,21.17
2022-09-06T11:06:22.514Z,20.99
2022-09-06T11:08:59.578Z,20.98
2022-09-06T11:11:58.484Z,21.04
2022-09-06T11:14:27.292Z,21.15
2022-09-06T11:17:00.714Z,21.25
2022-09-06T11:19:45.242Z,21.12
2022-09-06T11:22:50.858Z,21.13
2022-09-06T11:25:39.733Z,20.99
2022-09-06T11:28:13.153Z,20.98
2022-09-06T11:30:47.131Z,21.06
2022-09-06T11:33:26.141Z,21.07
2022-09-06T11:35:54.308Z,21.14
2022-09-06T11:38:25.558Z,21.08
2022-09-06T11:41:02.734Z,21.18
2022-09-06T11:43:52.578Z,21.43
2022-09-06T11:46:34.390Z,21.36
2022-09-06T11:49:04.872Z,21.32
2022-09-06T11:51:38.759Z,21.24
2022-09-06T11:54:14.821Z,21.20
2022-09-06T11:56:47.284Z,21.19
2022-09-06T11:59:16.459Z,21.20
2022-09-06T12:02:00.991Z,21.21
2022-09-06T12:05:01.646Z,21.32
2022-09-06T12:07:30.444Z,21.33
2022-09-06T12:09:57.437Z,21.37
2022-09-06T12:12:45.963Z,21.39
2022-09-06T12:15:24.682Z,21.13
2022-09-06T12:17:51.378Z,20.98
2022-09-06T12:20:49.050Z,20.92
2022-09-06T12:23:34.218Z,20.96
2022-09-06T12:26:05.840Z,20.95
2022-09-06T12:28:51.373Z,20.92
2022-09-06T12:31:38.239Z,20.76
2022-09-06T12:34:21.070Z,20.72
2022-09-06T12:36:51.576Z,20.65
2022-09-06T12:39:18.182Z,20.47
2022-09-06T12:41:49.295Z,20.37
2022-09-06T12:44:17.966Z,20.48
2022-09-06T12:46:49.844Z,20.32
2022-09-06T12:49:21.247Z,20.28
2022-09-06T12:51:48.129Z,20.27
2022-09-06T12:54:26.518Z,20.29
2022-09-06T12:57:04.536Z,20.30
2022-09-06T12:59:32.348Z,20.30
2022-09-06T13:02:10.824Z,20.22
2022-09-06T13:04:49.504Z,20.29
2022-09-06T13:07:19.072Z,20.20
2022-09-06T13:09:51.965Z,20.19
2022-09-06T13:12:29.576Z,20.23
2022-09-06T13:14:58.196Z,20.28
2022-09-06T13:17:29.858Z,20.39
2022-09-06T13:19:58.133Z,20.47
2022-09-06T13:22:47.422Z,20.62
2022-09-06T13:25:33.455Z,20.73
2022-09-06T13:28:01.562Z,20.66
2022-09-06T13:30:38.698Z,20.61
2022-09-06T13:33:07.527Z,20.65
2022-09-06T13:35:37.413Z,20.68
2022-09-06T13:38:31.129Z,20.65
2022-09-06T13:41:16.560Z,20.58
2022-09-06T13:43:45.633Z,20.75
2022-09-06T13:46:12.427Z,20.62
2022-09-06T13:48:44.694Z,20.49
2022-09-06T13:51:11.453Z,20.50
2022-09-06T13:53:38.075Z,20.61
2022-09-06T13:56:08.622Z,20.62
2022-09-06T13:58:36.633Z,20.74
2022-09-06T14:01:04.266Z,20.89
2022-09-06T14:03:32.434Z,20.87
2022-09-06T14:06:02.444Z,20.82
2022-09-06T14:08:49.228Z,20.63
2022-09-06T14:11:16.275Z,20.60
2022-09-06T14:13:42.950Z,20.61
2022-09-06T14:16:10.189Z,20.65
2022-09-06T14:18:36.946Z,20.57
2022-09-06T14:21:05.435Z,20.54
2022-09-06T14:23:32.161Z,20.53
2022-09-06T14:26:00.428Z,20.40
2022-09-06T14:28:27.777Z,20.44
2022-09-06T14:30:57.805Z,20.44
2022-09-06T14:33:24.540Z,20.37
2022-09-06T14:35:51.199Z,20.40
2022-09-06T14:38:17.837Z,20.35
2022-09-06T14:40:44.465Z,20.32
2022-09-06T14:43:11.261Z,20.27
2022-09-06T14:45:38.062Z,20.42
2022-09-06T14:48:05.607Z,20.44
2022-09-06T14:50:32.300Z,20.49
2022-09-06T14:52:59.110Z,20.52
2022-09-06T14:55:25.746Z,20.49
2022-09-06T14:57:52.458Z,20.59
2022-09-06T15:00:19.314Z,20.57
2022-09-06T15:02:46.088Z,20.57
2022-09-06T15:05:12.766Z,20.73
2022-09-06T15:07:39.386Z,20.74
2022-09-06T15:10:06.343Z,20.74
2022-09-06T15:12:33.213Z,20.77
2022-09-06T15:14:59.963Z,20.61
2022-09-06T15:17:26.680Z,20.55
2022-09-06T15:19:54.297Z,20.48
2022-09-06T15:22:20.973Z,20.50
2022-09-06T15:24:50.281Z,20.52
2022-09-06T15:27:18.299Z,20.53
2022-09-06T15:29:45.056Z,20.48
2022-09-06T15:32:11.734Z,20.45
2022-09-06T15:34:38.756Z,20.33
2022-09-06T15:37:05.418Z,20.27
2022-09-06T15:39:34.914Z,20.17
2022-09-06T15:42:01.785Z,20.09
2022-09-06T15:44:28.553Z,19.99
2022-09-06T15:46:58.077Z,19.95
2022-09-06T15:49:28.567Z,19.98
2022-09-06T15:51:58.197Z,20.06
2022-09-06T15:54:43.764Z,19.94
2022-09-06T15:57:10.651Z,19.80
2022-09-06T15:59:38.801Z,19.83
2022-09-06T16:02:05.656Z,19.80
2022-09-06T16:04:32.322Z,19.77
2022-09-06T16:06:58.952Z,19.68
2022-09-06T16:09:25.769Z,19.62
2022-09-06T16:11:52.583Z,19.58
2022-09-06T16:14:19.426Z,19.50
2022-09-06T16:16:46.183Z,19.50
2022-09-06T16:19:13.516Z,19.50
2022-09-06T16:21:42.683Z,19.54
2022-09-06T16:24:12.560Z,19.54
2022-09-06T16:26:42.344Z,19.55
2022-09-06T16:29:11.036Z,19.52
2022-09-06T16:31:40.633Z,19.48
2022-09-06T16:34:09.567Z,19.41
2022-09-06T16:36:36.323Z,19.39
2022-09-06T16:39:03.965Z,19.24
2022-09-06T16:41:42.764Z,19.18
2022-09-06T16:44:16.297Z,19.15
2022-09-06T16:46:45.629Z,19.09
2022-09-06T16:49:12.690Z,19.08
2022-09-06T16:51:42.824Z,19.08
2022-09-06T16:54:12.331Z,19.04
2022-09-06T16:56:42.691Z,18.92
2022-09-06T16:59:15.174Z,18.92
2022-09-06T17:01:45.608Z,18.92
2022-09-06T17:04:13.184Z,18.90
2022-09-06T17:06:44.569Z,18.89
2022-09-06T17:09:16.583Z,18.81
2022-09-06T17:11:43.421Z,18.75
2022-09-06T17:14:10.191Z,18.72
2022-09-06T17:16:55.408Z,18.74
2022-09-06T17:19:22.390Z,18.76
2022-09-06T17:21:56.675Z,18.72
2022-09-06T17:24:23.514Z,18.68
2022-09-06T17:26:53.217Z,18.67
2022-09-06T17:29:20.032Z,18.67
2022-09-06T17:31:47.826Z,18.58
2022-09-06T17:34:14.505Z,18.61
2022-09-06T17:36:44.143Z,18.58
2022-09-06T17:39:15.456Z,18.49
2022-09-06T17:41:55.345Z,18.43
2022-09-06T17:44:25.318Z,18.39
2022-09-06T17:47:11.390Z,18.35
2022-09-06T17:49:39.361Z,18.32
2022-09-06T17:52:05.986Z,18.22
2022-09-06T17:54:32.772Z,18.20
2022-09-06T17:56:59.493Z,18.14
2022-09-06T17:59:26.182Z,18.05
2022-09-06T18:01:55.426Z,18.00
2022-09-06T18:04:22.110Z,17.95
2022-09-06T18:06:48.789Z,17.90
2022-09-06T18:09:17.787Z,17.85
2022-09-06T18:11:48.325Z,17.82
2022-09-06T18:14:17.402Z,17.72
2022-09-06T18:16:56.553Z,17.62
2022-09-06T18:19:23.580Z,17.52
2022-09-06T18:21:50.831Z,17.49
2022-09-06T18:24:17.728Z,17.42
2022-09-06T18:26:47.317Z,17.40
2022-09-06T18:29:18.561Z,17.35
2022-09-06T18:31:45.831Z,17.33
2022-09-06T18:34:13.109Z,17.32
2022-09-06T18:36:40.462Z,17.26
2022-09-06T18:39:07.163Z,17.16
2022-09-06T18:41:53.403Z,17.12
2022-09-06T18:44:20.358Z,17.07
2022-09-06T18:46:47.943Z,17.09
2022-09-06T18:49:18.539Z,17.05
2022-09-06T18:51:45.585Z,16.98
2022-09-06T18:54:13.162Z,16.91
2022-09-06T18:56:40.323Z,16.83
2022-09-06T18:59:09.861Z,16.79
2022-09-06T19:01:36.806Z,16.76
2022-09-06T19:04:05.313Z,16.71
2022-09-06T19:06:35.204Z,16.68
2022-09-06T19:09:08.806Z,16.69
2022-09-06T19:11:35.848Z,16.63
2022-09-06T19:14:03.636Z,16.54
2022-09-06T19:16:31.360Z,16.52
2022-09-06T19:19:04.849Z,16.52
2022-09-06T19:21:32.610Z,16.50
2022-09-06T19:24:08.307Z,16.47
2022-09-06T19:26:37.843Z,16.47
2022-09-06T19:29:08.800Z,16.43
2022-09-06T19:31:38.772Z,16.34
2022-09-06T19:34:05.920Z,16.26
2022-09-06T19:36:32.964Z,16.18
2022-09-06T19:39:04.376Z,16.19
2022-09-06T19:41:33.788Z,16.14
2022-09-06T19:44:01.561Z,16.04
2022-09-06T19:46:28.465Z,16.00
2022-09-06T19:48:58.849Z,16.08
2022-09-06T19:51:25.765Z,16.06
2022-09-06T19:53:54.682Z,15.98
2022-09-06T19:56:33.792Z,15.98
2022-09-06T19:59:03.322Z,15.96
2022-09-06T20:01:32.538Z,15.92
2022-09-06T20:04:00.639Z,15.91
2022-09-06T20:06:27.462Z,15.85
2022-09-06T20:08:56.060Z,15.85
2022-09-06T20:11:25.914Z,15.82
2022-09-06T20:13:52.888Z,15.80
2022-09-06T20:16:20.983Z,15.79
2022-09-06T20:18:48.528Z,15.72
2022-09-06T20:21:15.449Z,15.67
2022-09-06T20:23:42.139Z,15.67
2022-09-06T20:26:11.299Z,15.70
2022-09-06T20:28:38.180Z,15.74
2022-09-06T20:31:11.325Z,15.70
2022-09-06T20:33:38.150Z,15.70
2022-09-06T20:36:07.230Z,15.74
2022-09-06T20:38:36.456Z,15.75
2022-09-06T20:41:08.705Z,15.70
2022-09-06T20:43:37.102Z,15.66
2022-09-06T20:46:16.442Z,15.67
2022-09-06T20:48:45.320Z,15.59
2022-09-06T20:51:18.968Z,15.53
2022-09-06T20:53:55.172Z,15.46
2022-09-06T20:56:24.312Z,15.43
2022-09-06T20:58:55.491Z,15.40
2022-09-06T21:01:25.226Z,15.38
2022-09-06T21:03:57.399Z,15.35
2022-09-06T21:06:26.084Z,15.31
2022-09-06T21:08:52.816Z,15.27
2022-09-06T21:11:20.152Z,15.29
2022-09-06T21:13:51.232Z,15.29
2022-09-06T21:16:24.388Z,15.25
2022-09-06T21:18:53.133Z,15.20
2022-09-06T21:21:21.454Z,15.20
2022-09-06T21:23:48.891Z,15.23
2022-09-06T21:26:16.006Z,15.19
2022-09-06T21:28:43.492Z,15.22
2022-09-06T21:31:24.904Z,15.25
2022-09-06T21:33:56.795Z,15.20
2022-09-06T21:36:27.509Z,15.18
2022-09-06T21:38:55.668Z,15.12
2022-09-06T21:41:23.370Z,15.05
2022-09-06T21:43:54.203Z,15.09
2022-09-06T21:46:22.618Z,15.11
2022-09-06T21:48:51.605Z,15.07
2022-09-06T21:51:20.688Z,15.07
2022-09-06T21:53:49.525Z,15.08
2022-09-06T21:56:19.617Z,15.08
2022-09-06T21:58:50.347Z,15.07
2022-09-06T22:01:17.277Z,14.99
2022-09-06T22:03:44.584Z,14.96
2022-09-06T22:06:16.923Z,15.01
2022-09-06T22:08:44.538Z,14.95
2022-09-06T22:11:20.136Z,14.92
2022-09-06T22:13:47.715Z,14.85
2022-09-06T22:16:17.224Z,14.84
2022-09-06T22:18:44.964Z,14.84
2022-09-06T22:21:18.443Z,14.86
2022-09-06T22:23:50.816Z,14.81
2022-09-06T22:26:18.124Z,14.82
2022-09-06T22:28:45.222Z,14.83
2022-09-06T22:31:12.221Z,14.81
2022-09-06T22:33:42.114Z,14.81
2022-09-06T22:36:10.696Z,14.86
2022-09-06T22:38:37.547Z,14.74
2022-09-06T22:41:05.836Z,14.74
2022-09-06T22:43:32.569Z,14.74
2022-09-06T22:46:05.751Z,14.76
2022-09-06T22:48:33.920Z,14.77
2022-09-06T22:51:01.766Z,14.74
2022-09-06T22:53:29.284Z,14.73
2022-09-06T22:55:56.145Z,14.79
2022-09-06T22:58:27.629Z,14.79
2022-09-06T23:00:55.142Z,14.72
2022-09-06T23:03:22.403Z,14.70
2022-09-06T23:05:49.416Z,14.70
2022-09-06T23:08:17.813Z,14.67
2022-09-06T23:10:44.856Z,14.71
2022-09-06T23:13:11.810Z,14.70
2022-09-06T23:15:46.077Z,14.68
2022-09-06T23:18:14.081Z,14.71
2022-09-06T23:20:41.093Z,14.65
2022-09-06T23:23:08.262Z,14.66
2022-09-06T23:25:38.998Z,14.65
2022-09-06T23:28:06.171Z,14.65
2022-09-06T23:30:35.956Z,14.61
2022-09-06T23:33:03.820Z,14.58
2022-09-06T23:35:30.756Z,14.57
2022-09-06T23:37:57.663Z,14.55
2022-09-06T23:40:24.347Z,14.58
2022-09-06T23:42:51.007Z,14.60
2022-09-06T23:45:18.151Z,14.59
2022-09-06T23:47:44.790Z,14.61
2022-09-06T23:50:11.525Z,14.58
2022-09-06T23:52:38.179Z,14.54
2022-09-06T23:55:05.488Z,14.54
2022-09-06T23:57:32.230Z,14.57
2022-09-06T23:59:58.923Z,14.59
